createdAt,value
2023-04-20T00:08:53.228Z,75341.72
2023-04-20T00:18:55.608Z,75331.59
2023-04-20T00:28:58.335Z,75339.69
2023-04-20T00:39:07.207Z,75339.69
2023-04-20T00:49:12.198Z,75353.88
2023-04-20T00:59:23.370Z,75364.00
2023-04-20T01:09:34.646Z,75366.00
2023-04-20T01:19:45.450Z,75386.25
2023-04-20T01:29:49.704Z,75368.03
2023-04-20T01:39:56.779Z,75366.00
2023-04-20T01:50:05.449Z,75374.09
2023-04-20T02:00:14.753Z,75357.91
2023-04-20T02:10:18.725Z,75366.00
2023-04-20T02:20:21.498Z,75376.13
2023-04-20T02:30:25.410Z,75378.16
2023-04-20T02:40:29.956Z,75380.19
2023-04-20T02:50:38.748Z,75378.16
2023-04-20T03:01:02.561Z,75386.25
2023-04-20T03:11:06.125Z,75390.28
2023-04-20T03:21:12.262Z,75376.13
2023-04-20T03:31:16.081Z,75380.19
2023-04-20T03:41:19.751Z,75390.28
2023-04-20T03:51:24.514Z,75418.63
2023-04-20T04:01:37.051Z,75430.75
2023-04-20T04:11:42.049Z,75453.03
2023-04-20T04:21:51.419Z,75444.94
2023-04-20T04:31:54.649Z,75438.88
2023-04-20T04:41:58.018Z,75440.88
2023-04-20T04:52:09.833Z,75430.75
2023-04-20T05:02:14.698Z,75430.75
2023-04-20T05:12:17.560Z,75414.56
2023-04-20T05:22:25.786Z,75345.78
2023-04-20T05:32:32.681Z,75335.66
2023-04-20T05:42:38.259Z,75337.69
2023-04-20T05:52:42.724Z,75329.59
2023-04-20T06:02:46.638Z,75250.66
2023-04-20T06:12:51.790Z,75196.03
2023-04-20T06:23:02.512Z,74993.69
2023-04-20T06:33:04.672Z,74803.47
2023-04-20T06:43:09.795Z,74716.47
2023-04-20T06:53:11.894Z,74637.56
2023-04-20T07:03:14.539Z,74605.19
2023-04-20T07:13:17.123Z,74542.47
2023-04-20T07:23:19.385Z,74548.56
2023-04-20T07:33:26.359Z,74601.16
2023-04-20T07:43:33.190Z,74465.59
2023-04-20T07:53:35.813Z,74390.75
2023-04-20T08:03:38.229Z,74307.78
2023-04-20T08:13:41.656Z,74228.91
2023-04-20T08:23:47.731Z,74338.16
2023-04-20T08:33:52.340Z,74346.22
2023-04-20T08:43:56.894Z,74423.13
2023-04-20T08:54:05.977Z,74328.03
2023-04-20T09:04:19.059Z,74459.53
2023-04-20T09:14:23.003Z,74500.00
2023-04-20T09:24:32.954Z,74524.28
2023-04-20T09:34:45.447Z,74453.47
2023-04-20T09:44:55.956Z,74455.47
2023-04-20T09:54:59.754Z,74451.44
2023-04-20T10:05:02.480Z,74481.78
2023-04-20T10:15:10.523Z,74419.06
2023-04-20T10:25:18.678Z,74449.41
2023-04-20T10:35:23.253Z,74394.78
2023-04-20T10:45:40.495Z,74408.94
2023-04-20T10:55:45.662Z,74398.84
2023-04-20T11:05:50.610Z,74346.22
2023-04-20T11:15:55.235Z,74330.06
2023-04-20T11:25:57.726Z,74356.34
2023-04-20T11:36:02.677Z,74297.69
2023-04-20T11:46:18.512Z,74330.06
2023-04-20T11:56:24.113Z,74340.16
2023-04-20T12:06:33.559Z,74309.81
2023-04-20T12:16:38.274Z,74366.47
2023-04-20T12:26:46.242Z,74352.31
2023-04-20T12:36:48.394Z,74319.94
2023-04-20T12:46:52.588Z,74224.84
2023-04-20T12:56:59.983Z,74275.44
2023-04-20T13:07:04.690Z,74261.25
2023-04-20T13:17:11.382Z,74269.34
2023-04-20T13:27:15.969Z,74257.22
2023-04-20T13:37:21.532Z,74234.97
2023-04-20T13:47:26.774Z,74184.38
2023-04-20T13:57:34.413Z,74265.31
2023-04-20T14:07:37.381Z,74271.38
2023-04-20T14:17:45.006Z,74269.34
2023-04-20T14:27:47.553Z,74216.75
2023-04-20T14:37:49.783Z,74164.16
2023-04-20T14:47:56.942Z,74224.84
2023-04-20T14:57:59.341Z,74253.19
2023-04-20T15:08:04.351Z,74241.03
2023-04-20T15:18:11.536Z,74239.00
2023-04-20T15:28:15.639Z,74245.09
2023-04-20T15:38:17.838Z,74265.31
2023-04-20T15:48:20.359Z,74265.31
2023-04-20T15:58:22.614Z,74249.13
2023-04-20T16:08:24.842Z,74299.72
2023-04-20T16:18:27.048Z,74317.91
2023-04-20T16:28:31.082Z,74366.47
2023-04-20T16:38:34.418Z,74372.53
2023-04-20T16:48:36.658Z,74380.63
2023-04-20T16:58:38.930Z,74404.91
2023-04-20T17:08:43.564Z,74423.13
2023-04-20T17:18:45.850Z,74447.38
2023-04-20T17:28:54.722Z,74475.72
2023-04-20T17:39:01.506Z,74495.94
2023-04-20T17:49:07.529Z,74512.13
2023-04-20T17:59:12.418Z,74532.38
2023-04-20T18:09:14.529Z,74556.66
2023-04-20T18:19:21.515Z,74587.00
2023-04-20T18:29:29.348Z,74603.19
2023-04-20T18:39:33.864Z,74627.47
2023-04-20T18:49:38.683Z,74653.75
2023-04-20T18:59:43.422Z,74674.00
2023-04-20T19:09:47.831Z,74698.28
2023-04-20T19:19:55.564Z,74726.59
2023-04-20T19:30:00.193Z,74750.88
2023-04-20T19:40:06.323Z,74775.16
2023-04-20T19:50:08.666Z,74803.47
2023-04-20T20:00:13.839Z,74815.63
2023-04-20T20:10:17.070Z,74843.94
2023-04-20T20:20:20.481Z,74858.13
2023-04-20T20:30:23.697Z,74884.41
2023-04-20T20:40:26.820Z,74912.75
2023-04-20T20:50:29.329Z,74943.09
2023-04-20T21:00:36.433Z,74932.97
2023-04-20T21:10:38.905Z,74973.44
2023-04-20T21:20:41.215Z,75007.84
2023-04-20T21:30:43.401Z,75034.16
2023-04-20T21:40:50.690Z,75050.34
2023-04-20T21:50:57.541Z,75062.47
2023-04-20T22:01:02.219Z,75076.66
2023-04-20T22:11:04.813Z,75100.94
2023-04-20T22:21:11.870Z,75123.19
2023-04-20T22:31:14.455Z,75135.31
2023-04-20T22:41:19.072Z,75159.59
2023-04-20T22:51:22.580Z,75187.94
2023-04-20T23:01:27.884Z,75196.03
2023-04-20T23:11:39.468Z,75206.16
2023-04-20T23:21:42.039Z,75224.34
2023-04-20T23:31:44.872Z,75246.63
2023-04-20T23:41:47.388Z,75258.75
2023-04-20T23:51:49.993Z,75272.94
